createdAt,value
2019-04-04T00:00:55.617Z,6.42
2019-04-04T00:03:27.256Z,7.17
2019-04-04T00:05:59.099Z,7.08
2019-04-04T00:08:31.580Z,6.95
2019-04-04T00:11:05.775Z,6.90
2019-04-04T00:13:36.953Z,7.08
2019-04-04T00:16:07.976Z,6.20
2019-04-04T00:18:39.862Z,6.47
2019-04-04T00:21:11.906Z,6.28
2019-04-04T00:23:43.652Z,6.65
2019-04-04T00:26:16.126Z,6.83
2019-04-04T00:28:47.908Z,6.03
2019-04-04T00:31:19.598Z,6.72
2019-04-04T00:33:50.975Z,6.33
2019-04-04T00:36:23.158Z,6.62
2019-04-04T00:38:55.219Z,6.85
2019-04-04T00:41:27.128Z,6.65
2019-04-04T00:43:59.099Z,6.85
2019-04-04T00:46:30.899Z,7.47
2019-04-04T00:49:04.829Z,7.92
2019-04-04T00:51:38.687Z,7.15
2019-04-04T00:54:10.079Z,7.12
2019-04-04T00:56:41.690Z,7.40
2019-04-04T00:59:13.036Z,7.72
2019-04-04T01:01:44.580Z,8.15
2019-04-04T01:04:16.566Z,7.67
2019-04-04T01:06:48.337Z,7.90
2019-04-04T01:09:19.593Z,7.92
2019-04-04T01:11:51.874Z,7.55
2019-04-04T01:14:23.473Z,6.97
2019-04-04T01:16:55.788Z,6.90
2019-04-04T01:19:28.585Z,7.37
2019-04-04T01:22:00.243Z,7.12
2019-04-04T01:24:31.951Z,7.78
2019-04-04T01:27:04.188Z,7.67
2019-04-04T01:29:37.143Z,7.72
2019-04-04T01:32:08.704Z,7.45
2019-04-04T01:34:40.047Z,7.65
2019-04-04T01:37:12.230Z,7.75
2019-04-04T01:39:43.906Z,7.35
2019-04-04T01:42:16.071Z,8.38
2019-04-04T01:44:47.894Z,8.30
2019-04-04T01:47:19.786Z,7.47
2019-04-04T01:49:51.878Z,7.95
2019-04-04T01:52:27.838Z,7.50
2019-04-04T01:54:57.681Z,7.22
2019-04-04T01:57:29.257Z,7.83
2019-04-04T02:00:01.547Z,7.03
2019-04-04T02:02:33.100Z,7.58
2019-04-04T02:05:04.740Z,7.78
2019-04-04T02:07:36.278Z,7.65
2019-04-04T02:10:07.954Z,7.40
2019-04-04T02:12:40.105Z,7.20
2019-04-04T02:15:14.353Z,7.40
2019-04-04T02:17:46.120Z,7.47
2019-04-04T02:20:18.063Z,7.87
2019-04-04T02:22:49.574Z,7.45
2019-04-04T02:25:22.611Z,7.58
2019-04-04T02:27:53.873Z,8.00
2019-04-04T02:30:25.490Z,7.72
2019-04-04T02:33:00.413Z,8.10
2019-04-04T02:35:30.962Z,7.83
2019-04-04T02:38:02.309Z,7.53
2019-04-04T02:40:33.837Z,7.87
2019-04-04T02:43:05.197Z,7.75
2019-04-04T02:45:38.841Z,8.65
2019-04-04T02:48:09.777Z,8.20
2019-04-04T02:50:41.143Z,7.55
2019-04-04T02:53:13.549Z,8.18
2019-04-04T02:55:45.391Z,8.03
2019-04-04T02:58:17.203Z,8.08
2019-04-04T03:00:48.284Z,8.10
2019-04-04T03:03:19.266Z,8.10
2019-04-04T03:05:51.983Z,8.23
2019-04-04T03:08:23.702Z,8.08
2019-04-04T03:10:55.575Z,7.70
2019-04-04T03:13:31.136Z,7.70
2019-04-04T03:16:00.763Z,6.97
2019-04-04T03:18:34.822Z,7.47
2019-04-04T03:21:06.170Z,7.28
2019-04-04T03:23:37.849Z,7.50
2019-04-04T03:26:09.424Z,7.47
2019-04-04T03:28:41.367Z,7.92
2019-04-04T03:31:13.309Z,7.60
2019-04-04T03:33:45.408Z,7.80
2019-04-04T03:36:17.279Z,7.25
2019-04-04T03:38:49.321Z,7.75
2019-04-04T03:41:21.818Z,7.85
2019-04-04T03:43:53.191Z,7.90
2019-04-04T03:46:25.240Z,8.18
2019-04-04T03:48:57.161Z,7.72
2019-04-04T03:51:29.096Z,7.15
2019-04-04T03:54:02.923Z,7.40
2019-04-04T03:56:39.174Z,7.55
2019-04-04T03:59:07.562Z,7.55
2019-04-04T04:01:38.611Z,8.30
2019-04-04T04:04:10.152Z,7.78
2019-04-04T04:06:42.370Z,8.50
2019-04-04T04:09:16.077Z,8.43
2019-04-04T04:11:47.350Z,9.15
2019-04-04T04:14:21.672Z,8.45
2019-04-04T04:16:52.562Z,8.38
2019-04-04T04:19:24.748Z,8.65
2019-04-04T04:21:57.328Z,8.88
2019-04-04T04:24:30.417Z,8.65
2019-04-04T04:27:02.160Z,9.20
2019-04-04T04:29:34.987Z,7.92
2019-04-04T04:32:07.257Z,7.92
2019-04-04T04:34:38.870Z,8.88
2019-04-04T04:37:10.652Z,8.75
2019-04-04T04:39:42.011Z,9.05
2019-04-04T04:42:13.867Z,8.55
2019-04-04T04:44:46.105Z,8.45
2019-04-04T04:47:17.771Z,8.05
2019-04-04T04:49:48.934Z,8.28
2019-04-04T04:52:20.571Z,8.05
2019-04-04T04:54:52.333Z,8.15
2019-04-04T04:57:29.936Z,8.40
2019-04-04T04:59:58.018Z,8.15
2019-04-04T05:02:30.102Z,8.40
2019-04-04T05:05:01.945Z,8.50
2019-04-04T05:07:33.890Z,7.87
2019-04-04T05:10:06.253Z,8.38
2019-04-04T05:12:37.910Z,8.60
2019-04-04T05:15:10.015Z,8.30
2019-04-04T05:17:42.048Z,7.58
2019-04-04T05:20:14.208Z,8.93
2019-04-04T05:22:45.967Z,8.05
2019-04-04T05:25:17.713Z,7.97
2019-04-04T05:27:48.706Z,8.10
2019-04-04T05:30:21.450Z,7.90
2019-04-04T05:33:00.248Z,7.17
2019-04-04T05:35:33.478Z,7.22
2019-04-04T05:38:07.731Z,6.87
2019-04-04T05:40:38.885Z,5.95
2019-04-04T05:43:10.995Z,6.22
2019-04-04T05:45:44.957Z,6.42
2019-04-04T05:48:16.116Z,6.22
2019-04-04T05:50:47.446Z,6.90
2019-04-04T05:53:21.398Z,6.78
2019-04-04T05:55:52.208Z,6.75
2019-04-04T05:58:23.204Z,7.72
2019-04-04T06:00:57.727Z,7.00
2019-04-04T06:03:28.831Z,7.67
2019-04-04T06:06:01.403Z,6.97
2019-04-04T06:08:33.594Z,7.15
2019-04-04T06:11:05.747Z,6.83
2019-04-04T06:13:37.719Z,7.22
2019-04-04T06:16:09.172Z,6.28
2019-04-04T06:18:42.856Z,5.70
2019-04-04T06:21:13.995Z,5.95
2019-04-04T06:23:45.860Z,5.58
2019-04-04T06:26:17.538Z,5.78
2019-04-04T06:28:49.881Z,5.20
2019-04-04T06:31:21.751Z,5.35
2019-04-04T06:33:54.525Z,4.58
2019-04-04T06:36:25.826Z,5.00
2019-04-04T06:38:57.082Z,4.87
2019-04-04T06:41:32.017Z,5.30
2019-04-04T06:44:02.550Z,4.55
2019-04-04T06:46:34.125Z,4.58
2019-04-04T06:49:06.712Z,3.90
2019-04-04T06:51:38.054Z,4.50
2019-04-04T06:54:09.402Z,4.10
2019-04-04T06:56:41.050Z,1.80
2019-04-04T06:59:12.874Z,2.27
2019-04-04T07:01:44.662Z,2.40
2019-04-04T07:04:17.360Z,3.10
2019-04-04T07:06:49.300Z,3.00
2019-04-04T07:09:22.092Z,2.73
2019-04-04T07:11:53.657Z,2.23
2019-04-04T07:14:25.279Z,2.60
2019-04-04T07:16:57.154Z,2.60
2019-04-04T07:19:29.280Z,3.00
2019-04-04T07:22:01.109Z,2.90
2019-04-04T07:24:33.475Z,3.13
2019-04-04T07:27:04.948Z,4.10
2019-04-04T07:29:36.379Z,3.90
2019-04-04T07:32:09.392Z,4.10
2019-04-04T07:34:41.130Z,3.90
2019-04-04T07:37:12.351Z,3.47
2019-04-04T07:39:43.503Z,4.10
2019-04-04T07:42:16.249Z,4.40
2019-04-04T07:44:48.074Z,3.80
2019-04-04T07:47:19.433Z,4.17
2019-04-04T07:49:50.712Z,4.07
2019-04-04T07:52:22.372Z,4.40
2019-04-04T07:54:54.280Z,4.50
2019-04-04T07:57:26.410Z,4.63
2019-04-04T07:59:58.090Z,4.40
2019-04-04T08:02:30.086Z,5.13
2019-04-04T08:05:01.382Z,4.77
2019-04-04T08:07:32.983Z,5.10
2019-04-04T08:10:04.701Z,4.87
2019-04-04T08:12:36.319Z,4.47
2019-04-04T08:15:09.302Z,5.73
2019-04-04T08:17:41.287Z,5.50
2019-04-04T08:20:13.755Z,5.33
2019-04-04T08:22:45.532Z,5.77
2019-04-04T08:25:17.272Z,6.63
2019-04-04T08:27:48.253Z,6.53
2019-04-04T08:30:19.988Z,8.33
2019-04-04T08:32:52.204Z,8.57
2019-04-04T08:35:23.780Z,9.40
2019-04-04T08:37:55.722Z,8.57
2019-04-04T08:40:26.720Z,8.90
2019-04-04T08:42:58.474Z,10.03
2019-04-04T08:45:30.633Z,10.07
2019-04-04T08:48:02.259Z,10.43
2019-04-04T08:50:34.047Z,10.67
2019-04-04T08:53:05.062Z,11.53
2019-04-04T08:55:36.946Z,12.33
2019-04-04T08:58:10.138Z,12.40
2019-04-04T09:00:41.705Z,13.87
2019-04-04T09:03:13.338Z,12.93
2019-04-04T09:05:44.685Z,13.17
2019-04-04T09:08:15.962Z,13.30
2019-04-04T09:10:47.341Z,12.77
2019-04-04T09:13:18.952Z,13.00
2019-04-04T09:15:50.687Z,13.27
2019-04-04T09:18:22.027Z,12.33
2019-04-04T09:20:53.296Z,12.80
2019-04-04T09:23:24.400Z,12.97
2019-04-04T09:26:05.459Z,12.60
2019-04-04T09:28:29.142Z,12.07
2019-04-04T09:31:02.246Z,12.27
2019-04-04T09:33:34.558Z,11.47
2019-04-04T09:36:06.491Z,12.37
2019-04-04T09:38:39.168Z,12.83
2019-04-04T09:41:11.209Z,13.17
2019-04-04T09:43:42.206Z,13.30
2019-04-04T09:46:14.107Z,12.83
2019-04-04T09:48:45.789Z,13.13
2019-04-04T09:51:17.561Z,13.17
2019-04-04T09:53:53.167Z,13.40
2019-04-04T09:56:23.145Z,13.83
2019-04-04T09:58:55.219Z,13.17
2019-04-04T10:01:26.706Z,12.97
2019-04-04T10:03:58.380Z,14.00
2019-04-04T10:06:30.303Z,14.70
2019-04-04T10:09:14.777Z,14.10
2019-04-04T10:11:35.087Z,14.33
2019-04-04T10:14:06.431Z,15.03
2019-04-04T10:16:38.646Z,16.03
2019-04-04T10:19:10.202Z,16.13
2019-04-04T10:21:41.833Z,14.67
2019-04-04T10:24:13.711Z,14.97
2019-04-04T10:26:45.405Z,16.07
2019-04-04T10:29:17.203Z,15.20
2019-04-04T10:31:49.147Z,17.10
2019-04-04T10:34:20.794Z,17.20
2019-04-04T10:36:52.165Z,16.60
2019-04-04T10:39:29.377Z,15.70
2019-04-04T10:41:56.892Z,17.20
2019-04-04T10:44:28.822Z,17.57
2019-04-04T10:47:00.484Z,17.30
2019-04-04T10:49:32.882Z,16.93
2019-04-04T10:52:04.083Z,16.40
2019-04-04T10:54:35.366Z,17.37
2019-04-04T10:57:06.713Z,17.40
2019-04-04T10:59:38.172Z,17.50
2019-04-04T11:02:09.491Z,18.27
2019-04-04T11:04:41.026Z,19.17
2019-04-04T11:07:12.773Z,19.37
2019-04-04T11:09:44.032Z,20.13
2019-04-04T11:12:16.864Z,20.67
2019-04-04T11:14:48.711Z,20.57
2019-04-04T11:17:20.140Z,20.97
2019-04-04T11:19:52.015Z,21.43
2019-04-04T11:22:24.786Z,22.67
2019-04-04T11:24:56.162Z,22.97
2019-04-04T11:27:28.240Z,23.40
2019-04-04T11:30:00.516Z,24.00
2019-04-04T11:32:32.744Z,23.17
2019-04-04T11:35:05.644Z,22.40
2019-04-04T11:37:37.358Z,22.40
2019-04-04T11:40:09.579Z,23.30
2019-04-04T11:42:41.075Z,23.47
2019-04-04T11:45:12.677Z,22.20
2019-04-04T11:47:45.016Z,23.30
2019-04-04T11:50:16.911Z,23.17
2019-04-04T11:52:48.531Z,23.80
2019-04-04T11:55:19.896Z,22.57
2019-04-04T11:57:52.071Z,22.33
2019-04-04T12:00:30.912Z,22.77
2019-04-04T12:03:02.336Z,20.33
2019-04-04T12:05:33.687Z,22.83
2019-04-04T12:08:05.206Z,22.17
2019-04-04T12:10:36.332Z,21.97
2019-04-04T12:13:07.390Z,22.13
2019-04-04T12:15:39.216Z,22.10
2019-04-04T12:18:10.796Z,21.53
2019-04-04T12:20:43.526Z,20.43
2019-04-04T12:23:15.026Z,21.63
2019-04-04T12:25:46.984Z,18.87
2019-04-04T12:28:18.579Z,19.67
2019-04-04T12:30:49.915Z,18.37
2019-04-04T12:33:21.781Z,18.43
2019-04-04T12:35:53.644Z,18.33
2019-04-04T12:38:24.984Z,18.23
2019-04-04T12:40:56.289Z,17.00
2019-04-04T12:43:27.828Z,18.23
2019-04-04T12:46:00.387Z,17.23
2019-04-04T12:48:32.259Z,17.70
2019-04-04T12:51:03.359Z,18.90
2019-04-04T12:53:35.331Z,34.17
2019-04-04T12:56:07.080Z,18.13
2019-04-04T12:58:39.132Z,17.80
2019-04-04T13:01:10.786Z,18.87
2019-04-04T13:03:42.358Z,17.97
2019-04-04T13:06:14.100Z,18.77
2019-04-04T13:08:46.813Z,18.63
2019-04-04T13:11:18.551Z,20.00
2019-04-04T13:13:49.918Z,20.23
2019-04-04T13:16:21.265Z,21.50
2019-04-04T13:18:52.581Z,19.83
2019-04-04T13:21:23.915Z,22.13
2019-04-04T13:23:55.596Z,20.97
2019-04-04T13:26:27.452Z,21.90
2019-04-04T13:28:58.799Z,23.37
2019-04-04T13:31:30.453Z,23.17
2019-04-04T13:34:02.292Z,22.33
2019-04-04T13:36:36.586Z,23.17
2019-04-04T13:39:10.535Z,22.07
2019-04-04T13:41:42.502Z,21.80
2019-04-04T13:44:13.912Z,21.07
2019-04-04T13:46:45.828Z,22.73
2019-04-04T13:49:17.113Z,22.73
2019-04-04T13:51:48.498Z,23.30
2019-04-04T13:54:20.463Z,23.43
2019-04-04T13:56:52.229Z,22.93
2019-04-04T13:59:23.848Z,21.37
2019-04-04T14:01:55.765Z,22.87
2019-04-04T14:04:27.352Z,22.77
2019-04-04T14:07:02.444Z,21.27
2019-04-04T14:09:32.755Z,22.30
2019-04-04T14:12:04.162Z,24.37
2019-04-04T14:14:36.059Z,24.37
2019-04-04T14:17:08.283Z,26.03
2019-04-04T14:19:39.754Z,25.70
2019-04-04T14:22:11.090Z,24.37
2019-04-04T14:24:42.782Z,23.47
2019-04-04T14:27:14.198Z,24.50
2019-04-04T14:29:46.156Z,25.07
2019-04-04T14:32:17.210Z,26.00
2019-04-04T14:34:48.291Z,26.83
2019-04-04T14:37:19.646Z,26.53
2019-04-04T14:39:51.863Z,26.80
2019-04-04T14:42:23.452Z,28.43
2019-04-04T14:44:55.434Z,26.97
2019-04-04T14:47:28.169Z,29.10
2019-04-04T14:50:00.453Z,28.27
2019-04-04T14:52:31.957Z,27.00
2019-04-04T14:55:03.254Z,25.77
2019-04-04T14:57:34.904Z,24.60
2019-04-04T15:00:09.208Z,26.40
2019-04-04T15:02:40.766Z,26.33
2019-04-04T15:05:13.260Z,27.20
2019-04-04T15:07:45.118Z,27.03
2019-04-04T15:10:16.459Z,28.90
2019-04-04T15:12:48.343Z,27.87
2019-04-04T15:15:20.046Z,28.70
2019-04-04T15:17:51.341Z,28.53
2019-04-04T15:20:23.036Z,27.40
2019-04-04T15:22:54.166Z,26.00
2019-04-04T15:25:25.240Z,27.20
2019-04-04T15:27:56.568Z,25.60
2019-04-04T15:30:28.742Z,26.67
2019-04-04T15:33:02.562Z,25.60
2019-04-04T15:35:33.474Z,27.50
2019-04-04T15:38:05.695Z,26.27
2019-04-04T15:40:37.337Z,25.93
2019-04-04T15:43:09.374Z,27.10
2019-04-04T15:45:41.379Z,27.57
2019-04-04T15:48:12.699Z,27.30
2019-04-04T15:50:44.433Z,26.60
2019-04-04T15:53:16.105Z,26.33
2019-04-04T15:55:47.840Z,27.27
2019-04-04T15:58:19.433Z,25.77
2019-04-04T16:00:51.182Z,26.00
2019-04-04T16:03:22.747Z,25.00
2019-04-04T16:05:54.621Z,24.83
2019-04-04T16:08:26.223Z,25.63
2019-04-04T16:10:59.707Z,25.17
2019-04-04T16:13:31.228Z,26.93
2019-04-04T16:16:02.336Z,24.83
2019-04-04T16:18:33.897Z,26.03
2019-04-04T16:21:05.388Z,26.47
2019-04-04T16:23:37.465Z,26.37
2019-04-04T16:26:09.330Z,26.40
2019-04-04T16:28:40.346Z,26.63
2019-04-04T16:31:12.724Z,26.57
2019-04-04T16:33:44.323Z,25.50
2019-04-04T16:36:15.349Z,26.33
2019-04-04T16:38:46.632Z,26.70
2019-04-04T16:41:18.906Z,24.97
2019-04-04T16:43:50.530Z,27.00
2019-04-04T16:46:23.559Z,27.07
2019-04-04T16:48:55.186Z,26.00
2019-04-04T16:51:26.693Z,27.77
2019-04-04T16:53:58.265Z,26.97
2019-04-04T16:56:29.856Z,25.90
2019-04-04T16:59:01.502Z,26.53
2019-04-04T17:01:33.361Z,24.53
2019-04-04T17:04:04.921Z,24.30
2019-04-04T17:06:36.360Z,25.63
2019-04-04T17:09:09.306Z,26.20
2019-04-04T17:11:40.662Z,27.77
2019-04-04T17:14:11.720Z,27.82
2019-04-04T17:16:43.250Z,27.63
2019-04-04T17:19:14.583Z,28.30
2019-04-04T17:21:45.836Z,26.60
2019-04-04T17:24:17.839Z,27.93
2019-04-04T17:26:49.820Z,29.17
2019-04-04T17:29:21.452Z,27.70
2019-04-04T17:31:52.981Z,28.97
2019-04-04T17:34:25.065Z,28.97
2019-04-04T17:36:56.548Z,28.67
2019-04-04T17:39:28.262Z,28.10
2019-04-04T17:42:00.735Z,28.47
2019-04-04T17:44:32.954Z,27.10
2019-04-04T17:47:04.423Z,26.97
2019-04-04T17:49:36.937Z,27.50
2019-04-04T17:52:08.331Z,25.40
2019-04-04T17:54:40.650Z,26.27
2019-04-04T17:57:11.913Z,26.75
2019-04-04T17:59:43.236Z,28.65
2019-04-04T18:02:14.569Z,26.30
2019-04-04T18:04:48.467Z,28.50
2019-04-04T18:07:19.918Z,26.65
2019-04-04T18:09:52.473Z,27.20
2019-04-04T18:12:23.711Z,27.65
2019-04-04T18:14:56.705Z,27.87
2019-04-04T18:17:27.894Z,28.87
2019-04-04T18:19:59.289Z,30.43
2019-04-04T18:22:30.904Z,31.68
2019-04-04T18:25:02.678Z,30.35
2019-04-04T18:27:33.671Z,32.15
2019-04-04T18:30:07.574Z,31.90
2019-04-04T18:32:39.508Z,32.87
2019-04-04T18:35:11.796Z,33.88
2019-04-04T18:37:43.155Z,31.70
2019-04-04T18:40:14.657Z,33.05
2019-04-04T18:42:53.264Z,33.70
2019-04-04T18:45:20.140Z,34.35
2019-04-04T18:47:51.150Z,32.90
2019-04-04T18:50:23.010Z,34.05
2019-04-04T18:52:54.977Z,34.18
2019-04-04T18:55:27.285Z,34.48
2019-04-04T18:57:59.404Z,33.10
2019-04-04T19:00:31.761Z,34.92
2019-04-04T19:03:03.329Z,33.00
2019-04-04T19:05:34.666Z,33.48
2019-04-04T19:08:07.109Z,33.60
2019-04-04T19:10:39.232Z,35.48
2019-04-04T19:13:11.031Z,32.77
2019-04-04T19:15:42.319Z,33.88
2019-04-04T19:18:15.165Z,32.83
2019-04-04T19:20:54.078Z,33.95
2019-04-04T19:23:25.882Z,33.88
2019-04-04T19:25:57.811Z,33.07
2019-04-04T19:28:29.753Z,32.70
2019-04-04T19:31:01.691Z,32.98
2019-04-04T19:33:33.487Z,32.38
2019-04-04T19:36:05.437Z,32.55
2019-04-04T19:38:37.106Z,33.73
2019-04-04T19:41:08.849Z,32.98
2019-04-04T19:43:39.952Z,31.87
2019-04-04T19:46:11.672Z,30.70
2019-04-04T19:48:43.289Z,30.82
2019-04-04T19:51:14.568Z,29.90
2019-04-04T19:53:46.164Z,29.42
2019-04-04T19:56:17.738Z,31.60
2019-04-04T19:58:49.638Z,32.17
2019-04-04T20:01:21.556Z,31.68
2019-04-04T20:03:52.785Z,30.30
2019-04-04T20:06:23.803Z,30.57
2019-04-04T20:08:55.117Z,30.92
2019-04-04T20:11:26.863Z,31.17
2019-04-04T20:13:58.770Z,30.47
2019-04-04T20:16:30.295Z,29.18
2019-04-04T20:19:02.144Z,28.32
2019-04-04T20:21:33.722Z,31.12
2019-04-04T20:24:05.529Z,29.82
2019-04-04T20:26:37.182Z,30.12
2019-04-04T20:29:08.509Z,31.62
2019-04-04T20:31:40.014Z,31.70
2019-04-04T20:34:11.861Z,30.15
2019-04-04T20:36:43.644Z,30.43
2019-04-04T20:39:14.712Z,32.80
2019-04-04T20:41:45.718Z,31.60
2019-04-04T20:44:17.324Z,33.13
2019-04-04T20:46:49.438Z,33.05
2019-04-04T20:49:21.086Z,33.50
2019-04-04T20:51:52.739Z,34.83
2019-04-04T20:54:24.791Z,32.23
2019-04-04T20:56:56.536Z,35.63
2019-04-04T20:59:28.453Z,37.40
2019-04-04T21:02:00.032Z,36.77
2019-04-04T21:04:31.701Z,38.90
2019-04-04T21:07:03.067Z,37.42
2019-04-04T21:09:34.060Z,41.08
2019-04-04T21:12:05.705Z,37.45
2019-04-04T21:14:36.968Z,40.28
2019-04-04T21:17:08.258Z,38.05
2019-04-04T21:19:40.176Z,40.58
2019-04-04T21:22:11.773Z,38.50
2019-04-04T21:24:43.382Z,39.65
2019-04-04T21:27:14.675Z,38.33
2019-04-04T21:29:45.980Z,40.80
2019-04-04T21:32:17.347Z,39.48
2019-04-04T21:34:48.686Z,39.78
2019-04-04T21:37:19.972Z,40.30
2019-04-04T21:39:51.706Z,39.25
2019-04-04T21:42:22.734Z,39.27
2019-04-04T21:44:54.619Z,39.38
2019-04-04T21:47:26.232Z,38.08
2019-04-04T21:49:58.736Z,36.38
2019-04-04T21:52:30.720Z,39.60
2019-04-04T21:55:02.264Z,39.38
2019-04-04T21:57:34.051Z,39.73
2019-04-04T22:00:08.268Z,40.58
2019-04-04T22:02:41.278Z,40.80
2019-04-04T22:05:12.793Z,39.63
2019-04-04T22:07:44.095Z,38.60
2019-04-04T22:10:16.102Z,39.05
2019-04-04T22:12:48.006Z,39.18
2019-04-04T22:15:19.559Z,41.35
2019-04-04T22:17:51.337Z,41.45
2019-04-04T22:20:23.098Z,39.73
2019-04-04T22:22:54.767Z,38.67
2019-04-04T22:25:26.072Z,39.80
2019-04-04T22:27:57.665Z,38.42
2019-04-04T22:30:30.255Z,39.40
2019-04-04T22:33:02.043Z,36.43
2019-04-04T22:35:33.619Z,38.25
2019-04-04T22:38:05.513Z,37.50
2019-04-04T22:40:36.856Z,37.40
2019-04-04T22:43:08.558Z,39.30
2019-04-04T22:45:39.854Z,39.43
2019-04-04T22:48:11.108Z,40.95
2019-04-04T22:50:42.718Z,39.88
2019-04-04T22:53:14.010Z,40.67
2019-04-04T22:55:45.652Z,39.88
2019-04-04T22:58:27.628Z,39.88
2019-04-04T23:00:50.764Z,38.87
2019-04-04T23:03:23.360Z,39.25
2019-04-04T23:05:54.732Z,38.30
2019-04-04T23:08:26.396Z,39.20
2019-04-04T23:10:58.003Z,39.97
2019-04-04T23:13:29.649Z,39.93
2019-04-04T23:16:01.117Z,38.83
2019-04-04T23:18:34.287Z,36.90
2019-04-04T23:21:05.870Z,40.00
2019-04-04T23:23:37.765Z,39.97
2019-04-04T23:26:08.756Z,37.17
2019-04-04T23:28:39.768Z,38.60
2019-04-04T23:31:11.289Z,38.17
2019-04-04T23:33:42.407Z,38.13
2019-04-04T23:36:14.283Z,38.20
2019-04-04T23:38:45.543Z,37.43
2019-04-04T23:41:16.533Z,39.17
2019-04-04T23:43:49.537Z,37.93
2019-04-04T23:46:21.066Z,39.57
2019-04-04T23:48:52.351Z,37.83
2019-04-04T23:51:24.020Z,38.60
2019-04-04T23:53:56.345Z,37.90
2019-04-04T23:56:27.653Z,37.20
2019-04-04T23:58:59.241Z,38.27
